createdAt,value
2018-06-29T00:00:57.205Z,21.17
2018-06-29T00:01:57.147Z,21.21
2018-06-29T00:02:57.111Z,21.22
2018-06-29T00:03:57.064Z,21.22
2018-06-29T00:04:57.013Z,21.32
2018-06-29T00:05:57.009Z,21.29
2018-06-29T00:06:56.947Z,21.21
2018-06-29T00:07:56.901Z,21.30
2018-06-29T00:08:56.860Z,21.36
2018-06-29T00:09:56.783Z,21.32
2018-06-29T00:10:56.750Z,21.37
2018-06-29T00:11:56.717Z,21.35
2018-06-29T00:12:56.649Z,21.40
2018-06-29T00:13:56.631Z,21.46
2018-06-29T00:14:56.586Z,21.54
2018-06-29T00:15:56.526Z,21.54
2018-06-29T00:16:56.477Z,21.60
2018-06-29T00:17:56.427Z,21.58
2018-06-29T00:18:56.407Z,21.48
2018-06-29T00:19:56.347Z,21.55
2018-06-29T00:20:56.305Z,21.52
2018-06-29T00:21:56.271Z,21.50
2018-06-29T00:22:56.227Z,21.55
2018-06-29T00:23:56.156Z,21.48
2018-06-29T00:24:56.118Z,21.51
2018-06-29T00:25:56.091Z,21.54
2018-06-29T00:26:56.040Z,21.46
2018-06-29T00:27:56.000Z,21.54
2018-06-29T00:28:55.930Z,21.55
2018-06-29T00:29:55.881Z,21.55
2018-06-29T00:30:55.841Z,21.46
2018-06-29T00:31:55.806Z,21.50
2018-06-29T00:32:55.764Z,21.43
2018-06-29T00:33:55.706Z,21.51
2018-06-29T00:34:55.836Z,21.45
2018-06-29T00:35:55.630Z,21.42
2018-06-29T00:36:55.571Z,21.42
2018-06-29T00:37:55.562Z,21.40
2018-06-29T00:38:55.501Z,21.42
2018-06-29T00:39:55.458Z,21.45
2018-06-29T00:40:55.386Z,21.37
2018-06-29T00:41:55.353Z,21.42
2018-06-29T00:42:55.300Z,21.43
2018-06-29T00:43:55.283Z,21.51
2018-06-29T00:44:55.210Z,21.42
2018-06-29T00:45:55.187Z,21.39
2018-06-29T00:46:55.132Z,21.21
2018-06-29T00:47:55.081Z,21.22
2018-06-29T00:48:55.032Z,21.25
2018-06-29T00:49:54.994Z,21.27
2018-06-29T00:50:54.940Z,21.17
2018-06-29T00:51:54.913Z,21.22
2018-06-29T00:52:54.854Z,21.11
2018-06-29T00:53:54.810Z,21.06
2018-06-29T00:54:54.784Z,21.18
2018-06-29T00:55:54.722Z,21.22
2018-06-29T00:56:54.675Z,21.17
2018-06-29T00:57:54.619Z,21.00
2018-06-29T00:58:54.588Z,21.06
2018-06-29T00:59:54.540Z,21.14
2018-06-29T01:00:54.484Z,21.07
2018-06-29T01:01:54.449Z,21.12
2018-06-29T01:02:54.412Z,21.06
2018-06-29T01:03:54.356Z,20.97
2018-06-29T01:04:54.314Z,20.92
2018-06-29T01:05:54.288Z,20.92
2018-06-29T01:06:54.218Z,20.80
2018-06-29T01:07:54.197Z,20.82
2018-06-29T01:08:54.128Z,20.75
2018-06-29T01:09:54.082Z,20.66
2018-06-29T01:10:54.069Z,20.78
2018-06-29T01:11:53.998Z,20.81
2018-06-29T01:12:53.966Z,20.82
2018-06-29T01:13:53.910Z,20.78
2018-06-29T01:14:53.873Z,20.78
2018-06-29T01:15:53.824Z,20.82
2018-06-29T01:16:53.765Z,20.87
2018-06-29T01:17:53.730Z,20.81
2018-06-29T01:18:53.687Z,20.84
2018-06-29T01:19:53.628Z,20.78
2018-06-29T01:20:53.587Z,20.72
2018-06-29T01:21:53.555Z,20.82
2018-06-29T01:22:53.501Z,20.80
2018-06-29T01:23:53.472Z,20.67
2018-06-29T01:24:53.410Z,20.63
2018-06-29T01:25:53.351Z,20.70
2018-06-29T01:26:53.306Z,20.75
2018-06-29T01:27:53.267Z,20.78
2018-06-29T01:28:53.247Z,20.77
2018-06-29T01:29:53.184Z,20.72
2018-06-29T01:30:53.123Z,20.77
2018-06-29T01:31:53.096Z,20.67
2018-06-29T01:32:53.065Z,20.66
2018-06-29T01:33:52.993Z,20.66
2018-06-29T01:34:52.960Z,20.60
2018-06-29T01:35:52.917Z,20.59
2018-06-29T01:36:52.863Z,20.55
2018-06-29T01:37:52.826Z,20.55
2018-06-29T01:38:52.780Z,20.50
2018-06-29T01:39:52.723Z,20.43
2018-06-29T01:40:52.684Z,20.55
2018-06-29T01:41:52.637Z,20.50
2018-06-29T01:42:52.598Z,20.48
2018-06-29T01:43:52.561Z,20.41
2018-06-29T01:44:52.519Z,20.58
2018-06-29T01:45:52.457Z,20.56
2018-06-29T01:46:52.427Z,20.55
2018-06-29T01:47:52.377Z,20.52
2018-06-29T01:48:52.326Z,20.43
2018-06-29T01:49:52.294Z,20.55
2018-06-29T01:50:52.216Z,20.41
2018-06-29T01:51:52.173Z,20.47
2018-06-29T01:52:52.150Z,20.55
2018-06-29T01:53:52.094Z,20.48
2018-06-29T01:54:52.046Z,20.47
2018-06-29T01:55:52.004Z,20.51
2018-06-29T01:56:51.970Z,20.51
2018-06-29T01:57:51.913Z,20.47
2018-06-29T01:58:51.877Z,20.40
2018-06-29T01:59:51.812Z,20.34
2018-06-29T02:00:51.762Z,20.34
2018-06-29T02:01:51.745Z,20.36
2018-06-29T02:02:51.688Z,20.25
2018-06-29T02:03:51.624Z,20.28
2018-06-29T02:04:51.600Z,20.22
2018-06-29T02:05:51.575Z,20.19
2018-06-29T02:06:51.507Z,20.26
2018-06-29T02:07:51.457Z,20.28
2018-06-29T02:08:51.428Z,20.31
2018-06-29T02:09:51.367Z,20.31
2018-06-29T02:10:51.307Z,20.32
2018-06-29T02:11:51.285Z,20.28
2018-06-29T02:12:51.212Z,20.18
2018-06-29T02:13:51.195Z,20.26
2018-06-29T02:14:51.135Z,20.26
2018-06-29T02:15:51.079Z,20.32
2018-06-29T02:16:51.044Z,20.16
2018-06-29T02:17:51.001Z,20.14
2018-06-29T02:18:50.972Z,20.14
2018-06-29T02:19:50.900Z,20.18
2018-06-29T02:20:50.865Z,20.13
2018-06-29T02:21:50.834Z,20.07
2018-06-29T02:22:50.777Z,20.16
2018-06-29T02:23:50.726Z,20.10
2018-06-29T02:24:50.669Z,20.13
2018-06-29T02:25:50.659Z,20.13
2018-06-29T02:26:50.581Z,20.13
2018-06-29T02:27:50.543Z,20.10
2018-06-29T02:28:50.554Z,20.06
2018-06-29T02:29:50.469Z,20.10
2018-06-29T02:30:50.554Z,20.21
2018-06-29T02:31:50.362Z,19.96
2018-06-29T02:32:50.299Z,20.10
2018-06-29T02:33:50.258Z,20.04
2018-06-29T02:34:50.253Z,19.91
2018-06-29T02:35:50.169Z,19.95
2018-06-29T02:36:50.137Z,19.96
2018-06-29T02:37:50.080Z,19.99
2018-06-29T02:38:50.035Z,19.86
2018-06-29T02:39:50.014Z,19.99
2018-06-29T02:40:49.979Z,19.92
2018-06-29T02:41:49.908Z,19.94
2018-06-29T02:42:49.856Z,20.03
2018-06-29T02:43:49.826Z,19.96
2018-06-29T02:44:49.785Z,19.94
2018-06-29T02:45:49.721Z,19.96
2018-06-29T02:46:49.682Z,19.95
2018-06-29T02:47:49.633Z,19.85
2018-06-29T02:48:49.571Z,19.88
2018-06-29T02:49:49.532Z,19.91
2018-06-29T02:50:49.516Z,19.85
2018-06-29T02:51:49.441Z,19.86
2018-06-29T02:52:49.401Z,19.96
2018-06-29T02:53:49.374Z,19.77
2018-06-29T02:54:49.314Z,19.82
2018-06-29T02:55:49.256Z,19.67
2018-06-29T02:56:49.219Z,19.81
2018-06-29T02:57:49.160Z,19.86
2018-06-29T02:58:49.134Z,19.82
2018-06-29T02:59:49.072Z,19.86
2018-06-29T03:00:49.052Z,19.79
2018-06-29T03:01:48.981Z,19.81
2018-06-29T03:02:48.931Z,19.81
2018-06-29T03:03:48.889Z,19.85
2018-06-29T03:04:48.852Z,19.73
2018-06-29T03:05:48.804Z,19.86
2018-06-29T03:06:48.753Z,19.84
2018-06-29T03:07:48.717Z,19.84
2018-06-29T03:08:48.675Z,19.85
2018-06-29T03:09:48.615Z,19.86
2018-06-29T03:10:48.623Z,19.92
2018-06-29T03:11:48.531Z,20.00
2018-06-29T03:12:48.485Z,19.95
2018-06-29T03:13:48.458Z,19.91
2018-06-29T03:14:48.377Z,19.84
2018-06-29T03:15:48.351Z,19.82
2018-06-29T03:16:48.289Z,19.86
2018-06-29T03:17:48.263Z,19.91
2018-06-29T03:18:48.224Z,20.00
2018-06-29T03:19:48.185Z,19.95
2018-06-29T03:20:48.152Z,19.94
2018-06-29T03:21:48.090Z,19.94
2018-06-29T03:22:48.036Z,19.92
2018-06-29T03:23:47.998Z,19.88
2018-06-29T03:24:47.923Z,19.84
2018-06-29T03:25:47.888Z,19.89
2018-06-29T03:26:47.861Z,19.92
2018-06-29T03:27:47.790Z,19.91
2018-06-29T03:28:47.757Z,19.85
2018-06-29T03:29:47.724Z,19.82
2018-06-29T03:30:47.664Z,19.74
2018-06-29T03:31:47.612Z,19.86
2018-06-29T03:32:47.556Z,19.69
2018-06-29T03:33:47.525Z,19.82
2018-06-29T03:34:47.499Z,19.84
2018-06-29T03:35:47.413Z,19.81
2018-06-29T03:36:47.376Z,19.70
2018-06-29T03:37:47.351Z,19.64
2018-06-29T03:38:47.287Z,19.62
2018-06-29T03:39:47.243Z,19.63
2018-06-29T03:40:47.201Z,19.66
2018-06-29T03:41:47.151Z,19.67
2018-06-29T03:42:47.133Z,19.74
2018-06-29T03:43:47.065Z,19.67
2018-06-29T03:44:47.015Z,19.73
2018-06-29T03:45:46.959Z,19.67
2018-06-29T03:46:46.932Z,19.76
2018-06-29T03:47:46.877Z,19.69
2018-06-29T03:48:46.865Z,19.63
2018-06-29T03:49:46.805Z,19.59
2018-06-29T03:50:46.749Z,19.62
2018-06-29T03:51:46.697Z,19.62
2018-06-29T03:52:46.653Z,19.62
2018-06-29T03:53:46.609Z,19.59
2018-06-29T03:54:46.567Z,19.63
2018-06-29T03:55:46.513Z,19.62
2018-06-29T03:56:46.470Z,19.67
2018-06-29T03:57:46.422Z,19.63
2018-06-29T03:58:46.405Z,19.64
2018-06-29T03:59:46.345Z,19.73
2018-06-29T04:00:46.276Z,19.69
2018-06-29T04:01:46.228Z,19.67
2018-06-29T04:02:46.194Z,19.67
2018-06-29T04:03:46.160Z,19.86
2018-06-29T04:04:46.119Z,19.81
2018-06-29T04:05:46.047Z,19.85
2018-06-29T04:06:46.005Z,19.86
2018-06-29T04:07:45.958Z,19.96
2018-06-29T04:08:45.936Z,19.96
2018-06-29T04:09:45.916Z,19.92
2018-06-29T04:10:45.826Z,20.03
2018-06-29T04:11:45.834Z,20.03
2018-06-29T04:12:45.724Z,19.96
2018-06-29T04:13:45.691Z,19.96
2018-06-29T04:14:45.628Z,19.99
2018-06-29T04:15:45.615Z,20.07
2018-06-29T04:16:45.544Z,20.02
2018-06-29T04:17:45.494Z,20.10
2018-06-29T04:18:45.479Z,20.13
2018-06-29T04:19:45.430Z,20.03
2018-06-29T04:20:45.383Z,20.07
2018-06-29T04:21:45.333Z,20.03
2018-06-29T04:22:45.265Z,20.10
2018-06-29T04:23:45.226Z,20.14
2018-06-29T04:24:45.185Z,20.11
2018-06-29T04:25:45.139Z,20.03
2018-06-29T04:26:45.088Z,20.18
2018-06-29T04:27:45.068Z,20.04
2018-06-29T04:28:45.007Z,19.95
2018-06-29T04:29:44.954Z,19.94
2018-06-29T04:30:44.925Z,19.86
2018-06-29T04:31:44.863Z,19.84
2018-06-29T04:32:44.849Z,19.81
2018-06-29T04:33:44.793Z,19.84
2018-06-29T04:34:44.730Z,19.66
2018-06-29T04:35:44.685Z,19.84
2018-06-29T04:36:44.636Z,19.73
2018-06-29T04:37:44.598Z,19.64
2018-06-29T04:38:44.543Z,19.45
2018-06-29T04:39:44.508Z,19.51
2018-06-29T04:40:44.449Z,19.56
2018-06-29T04:41:44.423Z,19.34
2018-06-29T04:42:44.402Z,19.39
2018-06-29T04:43:44.305Z,19.34
2018-06-29T04:44:44.284Z,19.40
2018-06-29T04:45:44.219Z,19.41
2018-06-29T04:46:44.199Z,19.31
2018-06-29T04:47:44.163Z,19.40
2018-06-29T04:48:44.110Z,19.33
2018-06-29T04:49:44.032Z,19.34
2018-06-29T04:50:43.997Z,19.44
2018-06-29T04:51:43.934Z,19.45
2018-06-29T04:52:43.922Z,19.34
2018-06-29T04:53:43.852Z,19.36
2018-06-29T04:54:43.831Z,19.41
2018-06-29T04:55:43.787Z,19.45
2018-06-29T04:56:43.716Z,19.45
2018-06-29T04:57:43.691Z,19.45
2018-06-29T04:58:43.641Z,19.47
2018-06-29T04:59:43.606Z,19.45
2018-06-29T05:00:43.550Z,19.34
2018-06-29T05:01:43.507Z,19.31
2018-06-29T05:02:43.457Z,19.31
2018-06-29T05:03:43.398Z,19.24
2018-06-29T05:04:43.358Z,19.31
2018-06-29T05:05:43.321Z,19.31
2018-06-29T05:06:43.247Z,19.34
2018-06-29T05:07:43.232Z,19.37
2018-06-29T05:08:43.167Z,19.44
2018-06-29T05:09:43.106Z,19.48
2018-06-29T05:10:43.068Z,19.44
2018-06-29T05:11:43.019Z,19.40
2018-06-29T05:12:43.003Z,19.47
2018-06-29T05:13:42.956Z,19.55
2018-06-29T05:14:42.895Z,19.45
2018-06-29T05:15:42.854Z,19.33
2018-06-29T05:16:42.834Z,19.39
2018-06-29T05:17:42.760Z,19.40
2018-06-29T05:18:42.719Z,19.41
2018-06-29T05:19:42.656Z,19.40
2018-06-29T05:20:42.602Z,19.45
2018-06-29T05:21:42.590Z,19.47
2018-06-29T05:22:42.515Z,19.48
2018-06-29T05:23:42.472Z,19.47
2018-06-29T05:24:42.433Z,19.40
2018-06-29T05:25:42.378Z,19.47
2018-06-29T05:26:42.341Z,19.41
2018-06-29T05:27:42.308Z,19.31
2018-06-29T05:28:42.270Z,19.30
2018-06-29T05:29:42.188Z,19.31
2018-06-29T05:30:42.153Z,19.29
2018-06-29T05:31:42.129Z,19.30
2018-06-29T05:32:42.061Z,19.27
2018-06-29T05:33:42.013Z,19.27
2018-06-29T05:34:41.967Z,19.29
2018-06-29T05:35:41.919Z,19.19
2018-06-29T05:36:41.880Z,19.22
2018-06-29T05:37:41.824Z,19.18
2018-06-29T05:38:41.784Z,19.19
2018-06-29T05:39:41.762Z,19.09
2018-06-29T05:40:41.687Z,19.09
2018-06-29T05:41:41.685Z,19.09
2018-06-29T05:42:41.627Z,18.96
2018-06-29T05:43:41.574Z,18.98
2018-06-29T05:44:41.528Z,18.96
2018-06-29T05:45:41.465Z,18.99
2018-06-29T05:46:41.414Z,19.11
2018-06-29T05:47:41.379Z,19.04
2018-06-29T05:48:41.335Z,19.00
2018-06-29T05:49:41.277Z,18.92
2018-06-29T05:50:41.231Z,18.84
2018-06-29T05:51:41.191Z,18.93
2018-06-29T05:52:41.153Z,18.95
2018-06-29T05:53:41.103Z,19.00
2018-06-29T05:54:41.074Z,18.90
2018-06-29T05:55:41.002Z,18.93
2018-06-29T05:56:40.975Z,19.08
2018-06-29T05:57:40.907Z,18.95
2018-06-29T05:58:40.871Z,19.00
2018-06-29T05:59:40.817Z,18.98
2018-06-29T06:00:40.790Z,19.08
2018-06-29T06:01:40.737Z,19.14
2018-06-29T06:02:40.676Z,19.11
2018-06-29T06:03:40.625Z,19.07
2018-06-29T06:04:40.608Z,19.09
2018-06-29T06:05:40.576Z,19.09
2018-06-29T06:06:40.516Z,19.09
2018-06-29T06:07:40.442Z,19.07
2018-06-29T06:08:40.398Z,18.92
2018-06-29T06:09:40.356Z,18.95
2018-06-29T06:10:40.331Z,18.95
2018-06-29T06:11:40.270Z,18.96
2018-06-29T06:12:40.219Z,18.99
2018-06-29T06:13:40.167Z,18.90
2018-06-29T06:14:40.118Z,18.90
2018-06-29T06:15:40.078Z,18.84
2018-06-29T06:16:40.047Z,18.90
2018-06-29T06:17:39.992Z,18.83
2018-06-29T06:18:39.949Z,18.84
2018-06-29T06:19:39.902Z,18.84
2018-06-29T06:20:39.841Z,18.78
2018-06-29T06:21:39.801Z,18.84
2018-06-29T06:22:39.778Z,18.84
2018-06-29T06:23:39.705Z,18.81
2018-06-29T06:24:39.653Z,18.86
2018-06-29T06:25:39.625Z,18.86
2018-06-29T06:26:39.563Z,18.78
2018-06-29T06:27:39.535Z,18.90
2018-06-29T06:28:39.486Z,18.86
2018-06-29T06:29:39.437Z,18.88
2018-06-29T06:30:39.394Z,18.90
2018-06-29T06:31:39.368Z,18.83
2018-06-29T06:32:39.309Z,18.73
2018-06-29T06:33:39.274Z,18.74
2018-06-29T06:34:39.210Z,18.77
2018-06-29T06:35:39.248Z,18.68
2018-06-29T06:36:39.109Z,18.68
2018-06-29T06:37:39.100Z,18.63
2018-06-29T06:38:39.016Z,18.66
2018-06-29T06:39:38.968Z,18.66
2018-06-29T06:40:38.917Z,18.65
2018-06-29T06:41:38.944Z,18.63
2018-06-29T06:42:38.830Z,18.66
2018-06-29T06:43:38.784Z,18.58
2018-06-29T06:44:38.749Z,18.70
2018-06-29T06:45:38.697Z,18.70
2018-06-29T06:46:38.671Z,18.68
2018-06-29T06:47:38.610Z,18.71
2018-06-29T06:48:38.563Z,18.90
2018-06-29T06:49:38.530Z,18.74
2018-06-29T06:50:38.472Z,18.84
2018-06-29T06:51:38.415Z,18.71
2018-06-29T06:52:38.379Z,18.66
2018-06-29T06:53:38.335Z,18.63
2018-06-29T06:54:38.279Z,18.63
2018-06-29T06:55:38.231Z,18.65
2018-06-29T06:56:38.202Z,18.55
2018-06-29T06:57:38.160Z,18.63
2018-06-29T06:58:38.094Z,18.70
2018-06-29T06:59:38.050Z,18.65
2018-06-29T07:00:37.999Z,18.68
2018-06-29T07:01:37.953Z,18.59
2018-06-29T07:02:37.937Z,18.63
2018-06-29T07:03:37.883Z,18.73
2018-06-29T07:04:37.824Z,18.68
2018-06-29T07:05:37.803Z,18.62
2018-06-29T07:06:37.730Z,18.62
2018-06-29T07:07:37.687Z,18.47
2018-06-29T07:08:37.630Z,18.50
2018-06-29T07:09:37.612Z,18.52
2018-06-29T07:10:37.548Z,18.40
2018-06-29T07:11:37.515Z,18.53
2018-06-29T07:12:37.476Z,18.52
2018-06-29T07:13:37.411Z,18.49
2018-06-29T07:14:37.351Z,18.49
2018-06-29T07:15:37.324Z,18.47
2018-06-29T07:16:37.287Z,18.65
2018-06-29T07:17:37.211Z,18.63
2018-06-29T07:18:37.168Z,18.60
2018-06-29T07:19:37.112Z,18.59
2018-06-29T07:20:37.067Z,18.62
2018-06-29T07:21:37.060Z,18.56
2018-06-29T07:22:36.985Z,18.63
2018-06-29T07:23:36.945Z,18.56
2018-06-29T07:24:36.903Z,18.45
2018-06-29T07:25:36.865Z,18.37
2018-06-29T07:26:36.818Z,18.52
2018-06-29T07:27:36.767Z,18.28
2018-06-29T07:28:36.701Z,18.37
2018-06-29T07:29:36.685Z,18.38
2018-06-29T07:30:36.642Z,18.41
2018-06-29T07:31:36.570Z,18.38
2018-06-29T07:32:36.533Z,18.40
2018-06-29T07:33:36.484Z,18.37
2018-06-29T07:34:36.420Z,18.41
2018-06-29T07:35:36.402Z,18.38
2018-06-29T07:36:36.378Z,18.29
2018-06-29T07:37:36.286Z,18.26
2018-06-29T07:38:36.249Z,18.34
2018-06-29T07:39:36.187Z,18.43
2018-06-29T07:40:36.170Z,18.43
2018-06-29T07:41:36.134Z,18.34
2018-06-29T07:42:36.070Z,18.40
2018-06-29T07:43:36.017Z,18.33
2018-06-29T07:44:35.968Z,18.35
2018-06-29T07:45:35.925Z,18.33
2018-06-29T07:46:35.928Z,18.35
2018-06-29T07:47:35.833Z,18.29
2018-06-29T07:48:35.777Z,18.38
2018-06-29T07:49:35.731Z,18.25
2018-06-29T07:50:35.713Z,18.29
2018-06-29T07:51:35.672Z,18.34
2018-06-29T07:52:35.591Z,18.37
2018-06-29T07:53:35.584Z,18.22
2018-06-29T07:54:35.522Z,18.33
2018-06-29T07:55:35.473Z,18.26
2018-06-29T07:56:35.415Z,18.25
2018-06-29T07:57:35.383Z,18.34
2018-06-29T07:58:35.373Z,18.34
2018-06-29T07:59:35.283Z,18.47
2018-06-29T08:00:35.239Z,18.29
2018-06-29T08:01:35.178Z,18.33
2018-06-29T08:02:35.152Z,18.23
2018-06-29T08:03:35.101Z,18.23
2018-06-29T08:04:35.033Z,18.28
2018-06-29T08:05:35.005Z,18.22
2018-06-29T08:06:34.964Z,18.15
2018-06-29T08:07:34.920Z,18.04
2018-06-29T08:08:34.849Z,18.04
2018-06-29T08:09:34.810Z,18.20
2018-06-29T08:10:34.840Z,18.04
2018-06-29T08:11:34.738Z,18.07
2018-06-29T08:12:34.669Z,18.10
2018-06-29T08:13:34.608Z,18.01
2018-06-29T08:14:34.592Z,18.10
2018-06-29T08:15:34.534Z,18.03
2018-06-29T08:16:34.473Z,18.01
2018-06-29T08:17:34.459Z,18.01
2018-06-29T08:18:34.412Z,18.05
2018-06-29T08:19:34.338Z,18.08
2018-06-29T08:20:34.308Z,18.07
2018-06-29T08:21:34.264Z,17.97
2018-06-29T08:22:34.227Z,18.00
2018-06-29T08:23:34.150Z,17.95
2018-06-29T08:24:34.128Z,17.95
2018-06-29T08:25:34.067Z,17.94
2018-06-29T08:26:34.040Z,17.98
2018-06-29T08:27:33.977Z,17.89
2018-06-29T08:28:33.948Z,17.95
2018-06-29T08:29:33.865Z,18.00
2018-06-29T08:30:33.853Z,17.98
2018-06-29T08:31:33.802Z,18.03
2018-06-29T08:32:33.749Z,17.97
2018-06-29T08:33:33.697Z,18.01
2018-06-29T08:34:33.679Z,17.98
2018-06-29T08:35:33.614Z,18.05
2018-06-29T08:36:33.538Z,18.00
2018-06-29T08:37:33.511Z,18.15
2018-06-29T08:38:33.460Z,18.03
2018-06-29T08:39:33.424Z,18.10
2018-06-29T08:40:33.354Z,18.04
2018-06-29T08:41:33.337Z,18.03
2018-06-29T08:42:33.276Z,17.94
2018-06-29T08:43:33.211Z,17.98
2018-06-29T08:44:33.169Z,18.08
2018-06-29T08:45:33.122Z,18.11
2018-06-29T08:46:33.075Z,18.01
2018-06-29T08:47:33.056Z,18.04
2018-06-29T08:48:32.987Z,18.03
2018-06-29T08:49:32.987Z,17.95
2018-06-29T08:50:32.898Z,18.00
2018-06-29T08:51:32.861Z,18.00
2018-06-29T08:52:32.800Z,17.92
2018-06-29T08:53:32.754Z,18.01
2018-06-29T08:54:32.719Z,17.97
2018-06-29T08:55:32.688Z,17.97
2018-06-29T08:56:32.633Z,18.00
2018-06-29T08:57:32.569Z,17.98
2018-06-29T08:58:32.517Z,17.90
2018-06-29T08:59:32.506Z,17.90
2018-06-29T09:00:32.430Z,17.98
2018-06-29T09:01:32.381Z,17.87
2018-06-29T09:02:32.328Z,17.86
2018-06-29T09:03:32.289Z,17.70
2018-06-29T09:04:32.271Z,17.78
2018-06-29T09:05:32.230Z,17.78
2018-06-29T09:06:32.145Z,17.72
2018-06-29T09:07:32.102Z,17.72
2018-06-29T09:08:32.061Z,17.86
2018-06-29T09:09:32.536Z,17.82
2018-06-29T09:10:31.997Z,17.90
2018-06-29T09:11:31.920Z,17.95
2018-06-29T09:12:31.886Z,18.03
2018-06-29T09:13:31.831Z,18.08
2018-06-29T09:14:31.783Z,18.01
2018-06-29T09:15:31.724Z,18.00
2018-06-29T09:16:31.691Z,18.04
2018-06-29T09:17:31.648Z,18.01
2018-06-29T09:18:31.603Z,18.01
2018-06-29T09:19:31.550Z,18.00
2018-06-29T09:20:31.493Z,17.90
2018-06-29T09:21:31.449Z,17.83
2018-06-29T09:22:31.404Z,17.86
2018-06-29T09:23:31.363Z,17.82
2018-06-29T09:24:31.321Z,17.80
2018-06-29T09:25:31.260Z,17.67
2018-06-29T09:26:31.222Z,17.74
2018-06-29T09:27:31.181Z,17.74
2018-06-29T09:28:31.134Z,17.68
2018-06-29T09:29:31.106Z,17.72
2018-06-29T09:30:31.031Z,17.64
2018-06-29T09:31:31.010Z,17.78
2018-06-29T09:32:30.931Z,17.60
2018-06-29T09:33:30.903Z,17.67
2018-06-29T09:34:30.874Z,17.70
2018-06-29T09:35:30.823Z,17.68
2018-06-29T09:36:30.753Z,17.70
2018-06-29T09:37:30.729Z,17.60
2018-06-29T09:38:30.669Z,17.68
2018-06-29T09:39:30.622Z,17.67
2018-06-29T09:40:30.568Z,17.65
2018-06-29T09:41:30.519Z,17.68
2018-06-29T09:42:30.493Z,17.72
2018-06-29T09:43:30.454Z,17.79
2018-06-29T09:44:30.379Z,17.68
2018-06-29T09:45:30.338Z,17.70
2018-06-29T09:46:30.283Z,17.67
2018-06-29T09:47:30.268Z,17.63
2018-06-29T09:48:30.222Z,17.76
2018-06-29T09:49:30.139Z,17.79
2018-06-29T09:50:30.103Z,17.74
2018-06-29T09:51:30.053Z,17.68
2018-06-29T09:52:30.025Z,17.71
2018-06-29T09:53:29.959Z,17.72
2018-06-29T09:54:29.906Z,17.72
2018-06-29T09:55:29.866Z,17.67
2018-06-29T09:56:29.847Z,17.72
2018-06-29T09:57:29.782Z,17.71
2018-06-29T09:58:29.747Z,17.71
2018-06-29T09:59:29.691Z,17.78
2018-06-29T10:00:29.633Z,17.80
2018-06-29T10:01:29.891Z,17.74
2018-06-29T10:02:31.691Z,17.63
2018-06-29T10:03:29.491Z,17.63
2018-06-29T10:04:29.463Z,17.64
2018-06-29T10:05:29.402Z,17.72
2018-06-29T10:06:29.429Z,17.67
2018-06-29T10:07:29.307Z,17.67
2018-06-29T10:08:29.255Z,17.59
2018-06-29T10:09:29.228Z,17.63
2018-06-29T10:10:29.175Z,17.54
2018-06-29T10:11:29.129Z,17.59
2018-06-29T10:12:29.074Z,17.49
2018-06-29T10:13:29.054Z,17.46
2018-06-29T10:14:29.090Z,17.48
2018-06-29T10:15:28.953Z,17.42
2018-06-29T10:16:28.892Z,17.42
2018-06-29T10:17:28.849Z,17.46
2018-06-29T10:18:28.798Z,17.38
2018-06-29T10:19:28.753Z,17.41
2018-06-29T10:20:28.703Z,17.36
2018-06-29T10:21:28.669Z,17.39
2018-06-29T10:22:28.664Z,17.46
2018-06-29T10:23:28.556Z,17.54
2018-06-29T10:24:28.504Z,17.63
2018-06-29T10:25:28.486Z,17.64
2018-06-29T10:26:28.442Z,17.64
2018-06-29T10:27:28.371Z,17.70
2018-06-29T10:28:28.349Z,17.67
2018-06-29T10:29:28.290Z,17.70
2018-06-29T10:30:28.344Z,17.74
2018-06-29T10:31:28.187Z,17.71
2018-06-29T10:32:28.158Z,17.89
2018-06-29T10:33:28.088Z,17.90
2018-06-29T10:34:28.058Z,18.08
2018-06-29T10:35:28.032Z,18.29
2018-06-29T10:36:27.970Z,18.50
2018-06-29T10:37:27.919Z,18.63
2018-06-29T10:38:27.903Z,18.86
2018-06-29T10:39:27.847Z,19.11
2018-06-29T10:40:27.774Z,19.36
2018-06-29T10:41:27.772Z,19.55
2018-06-29T10:42:27.726Z,19.64
2018-06-29T10:43:27.665Z,19.91
2018-06-29T10:44:27.640Z,20.04
2018-06-29T10:45:27.580Z,20.21
2018-06-29T10:46:27.527Z,20.39
2018-06-29T10:47:27.485Z,20.56
2018-06-29T10:48:27.443Z,20.75
2018-06-29T10:49:27.406Z,20.93
2018-06-29T10:50:27.359Z,20.72
2018-06-29T10:51:27.328Z,20.85
2018-06-29T10:52:27.324Z,21.06
2018-06-29T10:53:27.254Z,21.29
2018-06-29T10:54:27.247Z,21.37
2018-06-29T10:55:27.190Z,21.62
2018-06-29T10:56:27.127Z,21.79
2018-06-29T10:57:27.125Z,21.88
2018-06-29T10:58:27.047Z,22.10
2018-06-29T10:59:27.010Z,22.23
2018-06-29T11:00:27.000Z,22.41
2018-06-29T11:01:26.950Z,22.60
2018-06-29T11:02:26.932Z,22.63
2018-06-29T11:03:26.864Z,22.78
2018-06-29T11:04:26.836Z,22.83
2018-06-29T11:05:26.863Z,23.03
2018-06-29T11:06:26.767Z,22.93
2018-06-29T11:07:26.741Z,23.09
2018-06-29T11:08:26.717Z,23.24
2018-06-29T11:09:26.662Z,23.46
2018-06-29T11:10:26.639Z,23.41
2018-06-29T11:11:26.609Z,23.47
2018-06-29T11:12:26.576Z,23.66
2018-06-29T11:13:26.542Z,23.87
2018-06-29T11:14:26.475Z,24.08
2018-06-29T11:15:26.438Z,24.01
2018-06-29T11:16:26.438Z,24.24
2018-06-29T11:17:26.382Z,24.03
2018-06-29T11:18:26.344Z,24.14
2018-06-29T11:19:26.300Z,24.06
2018-06-29T11:20:26.278Z,23.95
2018-06-29T11:21:26.231Z,24.11
2018-06-29T11:22:26.229Z,23.98
2018-06-29T11:23:26.170Z,23.92
2018-06-29T11:24:26.121Z,23.71
2018-06-29T11:25:26.094Z,23.44
2018-06-29T11:26:26.058Z,23.25
2018-06-29T11:27:26.027Z,23.15
2018-06-29T11:28:26.008Z,23.08
2018-06-29T11:29:25.938Z,22.98
2018-06-29T11:30:25.911Z,22.76
2018-06-29T11:31:25.852Z,22.68
2018-06-29T11:32:25.845Z,22.53
2018-06-29T11:33:25.790Z,22.36
2018-06-29T11:34:25.766Z,22.30
2018-06-29T11:35:25.692Z,22.30
2018-06-29T11:36:25.657Z,22.22
2018-06-29T11:37:25.627Z,22.10
2018-06-29T11:38:25.588Z,21.98
2018-06-29T11:39:25.532Z,21.96
2018-06-29T11:40:25.488Z,21.88
2018-06-29T11:41:25.455Z,21.89
2018-06-29T11:42:25.406Z,21.73
2018-06-29T11:43:25.397Z,21.67
2018-06-29T11:44:25.340Z,21.76
2018-06-29T11:45:25.276Z,21.73
2018-06-29T11:46:25.264Z,21.80
2018-06-29T11:47:25.478Z,21.73
2018-06-29T11:48:25.173Z,21.76
2018-06-29T11:49:25.129Z,21.75
2018-06-29T11:50:25.074Z,21.73
2018-06-29T11:51:25.031Z,21.72
2018-06-29T11:52:24.985Z,21.60
2018-06-29T11:53:25.178Z,21.55
2018-06-29T11:54:24.891Z,21.57
2018-06-29T11:55:24.848Z,21.54
2018-06-29T11:56:24.812Z,21.52
2018-06-29T11:57:24.769Z,21.50
2018-06-29T11:58:24.720Z,21.27
2018-06-29T11:59:24.922Z,20.81
2018-06-29T12:00:24.652Z,20.37
2018-06-29T12:01:24.582Z,19.94
2018-06-29T12:02:24.552Z,19.64
2018-06-29T12:03:24.518Z,19.44
2018-06-29T12:04:24.450Z,19.37
2018-06-29T12:05:24.675Z,19.11
2018-06-29T12:06:24.362Z,18.81
2018-06-29T12:07:24.315Z,18.80
2018-06-29T12:08:24.287Z,18.68
2018-06-29T12:09:24.230Z,18.75
2018-06-29T12:10:24.207Z,18.84
2018-06-29T12:11:24.421Z,18.65
2018-06-29T12:12:24.101Z,18.56
2018-06-29T12:13:24.050Z,18.07
2018-06-29T12:14:24.014Z,17.98
2018-06-29T12:15:23.967Z,17.92
2018-06-29T12:16:23.936Z,17.80
2018-06-29T12:17:24.131Z,17.63
2018-06-29T12:18:23.823Z,17.67
2018-06-29T12:19:23.790Z,17.74
2018-06-29T12:20:23.745Z,17.80
2018-06-29T12:21:23.681Z,17.74
2018-06-29T12:22:23.637Z,17.68
2018-06-29T12:23:23.996Z,18.15
2018-06-29T12:24:23.584Z,17.65
2018-06-29T12:25:23.567Z,17.60
2018-06-29T12:26:23.499Z,17.78
2018-06-29T12:27:23.418Z,17.83
2018-06-29T12:28:23.389Z,17.90
2018-06-29T12:29:23.569Z,17.82
2018-06-29T12:30:23.275Z,17.86
2018-06-29T12:31:23.247Z,17.86
2018-06-29T12:32:23.203Z,17.89
2018-06-29T12:33:23.141Z,17.86
2018-06-29T12:34:23.125Z,18.01
2018-06-29T12:35:23.303Z,18.22
2018-06-29T12:36:23.038Z,18.20
2018-06-29T12:37:22.958Z,18.03
2018-06-29T12:38:22.920Z,18.03
2018-06-29T12:39:22.876Z,17.98
2018-06-29T12:40:22.835Z,18.37
2018-06-29T12:41:23.030Z,18.62
2018-06-29T12:42:22.758Z,18.74
2018-06-29T12:43:22.683Z,18.86
2018-06-29T12:44:22.641Z,18.99
2018-06-29T12:45:22.617Z,18.88
2018-06-29T12:46:22.549Z,18.90
2018-06-29T12:47:22.755Z,18.93
2018-06-29T12:48:22.462Z,18.96
2018-06-29T12:49:22.437Z,19.09
2018-06-29T12:50:22.364Z,19.22
2018-06-29T12:51:22.377Z,19.39
2018-06-29T12:52:22.296Z,19.31